createdAt,value
2018-09-13T00:00:29.581Z,2.13
2018-09-13T00:02:57.397Z,2.13
2018-09-13T00:05:25.502Z,2.13
2018-09-13T00:07:52.858Z,1.80
2018-09-13T00:10:20.493Z,1.80
2018-09-13T00:12:48.403Z,2.03
2018-09-13T00:15:15.955Z,1.80
2018-09-13T00:17:43.601Z,1.80
2018-09-13T00:20:12.514Z,2.00
2018-09-13T00:22:40.195Z,2.17
2018-09-13T00:25:07.801Z,1.90
2018-09-13T00:27:35.740Z,1.80
2018-09-13T00:30:03.625Z,2.10
2018-09-13T00:32:31.174Z,2.03
2018-09-13T00:34:59.168Z,1.60
2018-09-13T00:37:26.725Z,2.00
2018-09-13T00:39:54.376Z,2.10
2018-09-13T00:42:22.161Z,1.93
2018-09-13T00:44:49.744Z,2.10
2018-09-13T00:47:17.484Z,1.80
2018-09-13T00:49:45.134Z,1.87
2018-09-13T00:52:12.697Z,1.70
2018-09-13T00:54:40.589Z,1.90
2018-09-13T00:57:08.280Z,2.30
2018-09-13T00:59:35.799Z,1.83
2018-09-13T01:02:03.442Z,1.77
2018-09-13T01:04:30.990Z,1.70
2018-09-13T01:06:58.600Z,1.90
2018-09-13T01:09:26.179Z,1.97
2018-09-13T01:11:54.012Z,2.20
2018-09-13T01:14:21.555Z,1.73
2018-09-13T01:16:49.181Z,1.97
2018-09-13T01:19:16.702Z,1.90
2018-09-13T01:21:44.261Z,1.97
2018-09-13T01:24:11.948Z,2.10
2018-09-13T01:26:39.580Z,2.00
2018-09-13T01:29:07.509Z,1.90
2018-09-13T01:31:35.185Z,1.83
2018-09-13T01:34:02.872Z,1.93
2018-09-13T01:36:31.227Z,1.83
2018-09-13T01:38:58.851Z,1.60
2018-09-13T01:41:26.523Z,2.13
2018-09-13T01:43:54.312Z,1.90
2018-09-13T01:46:22.040Z,2.33
2018-09-13T01:48:49.783Z,2.00
2018-09-13T01:51:17.560Z,1.80
2018-09-13T01:53:45.239Z,2.17
2018-09-13T01:56:12.926Z,1.90
2018-09-13T01:58:41.374Z,2.27
2018-09-13T02:01:09.140Z,1.93
2018-09-13T02:03:36.841Z,2.17
2018-09-13T02:06:04.768Z,2.23
2018-09-13T02:08:32.444Z,2.20
2018-09-13T02:11:01.114Z,2.33
2018-09-13T02:13:28.865Z,2.10
2018-09-13T02:15:56.587Z,2.47
2018-09-13T02:18:24.266Z,2.57
2018-09-13T02:20:52.422Z,2.10
2018-09-13T02:23:20.584Z,2.43
2018-09-13T02:25:48.209Z,2.53
2018-09-13T02:28:16.124Z,2.63
2018-09-13T02:30:43.815Z,2.20
2018-09-13T02:33:11.463Z,2.77
2018-09-13T02:35:39.599Z,2.37
2018-09-13T02:38:07.271Z,2.50
2018-09-13T02:40:34.919Z,2.70
2018-09-13T02:43:02.602Z,2.30
2018-09-13T02:45:30.322Z,2.20
2018-09-13T02:47:58.005Z,2.50
2018-09-13T02:50:25.951Z,2.43
2018-09-13T02:52:53.608Z,2.53
2018-09-13T02:55:21.172Z,2.40
2018-09-13T02:57:48.968Z,2.20
2018-09-13T03:00:16.525Z,2.50
2018-09-13T03:02:44.176Z,2.13
2018-09-13T03:05:12.084Z,2.63
2018-09-13T03:07:39.764Z,2.77
2018-09-13T03:10:07.389Z,2.40
2018-09-13T03:12:34.958Z,2.70
2018-09-13T03:15:02.681Z,2.60
2018-09-13T03:17:30.509Z,2.40
2018-09-13T03:19:58.074Z,2.27
2018-09-13T03:22:25.674Z,2.37
2018-09-13T03:24:53.940Z,2.33
2018-09-13T03:27:21.525Z,2.30
2018-09-13T03:29:49.267Z,2.10
2018-09-13T03:32:16.855Z,2.10
2018-09-13T03:34:44.492Z,2.43
2018-09-13T03:37:12.061Z,2.50
2018-09-13T03:39:39.712Z,2.43
2018-09-13T03:42:07.337Z,2.23
2018-09-13T03:44:34.858Z,2.40
2018-09-13T03:47:02.561Z,2.37
2018-09-13T03:49:30.179Z,2.33
2018-09-13T03:51:58.384Z,2.03
2018-09-13T03:54:26.326Z,2.50
2018-09-13T03:56:53.891Z,2.30
2018-09-13T03:59:21.544Z,2.37
2018-09-13T04:01:49.339Z,2.10
2018-09-13T04:04:16.943Z,1.93
2018-09-13T04:06:45.175Z,2.03
2018-09-13T04:09:13.226Z,2.20
2018-09-13T04:11:40.944Z,2.10
2018-09-13T04:14:08.872Z,2.27
2018-09-13T04:16:36.492Z,1.87
2018-09-13T04:19:04.356Z,2.23
2018-09-13T04:21:31.928Z,2.10
2018-09-13T04:23:59.501Z,1.93
2018-09-13T04:26:28.182Z,1.80
2018-09-13T04:28:55.767Z,1.90
2018-09-13T04:31:23.334Z,1.83
2018-09-13T04:33:50.947Z,2.30
2018-09-13T04:36:19.388Z,2.00
2018-09-13T04:38:46.956Z,1.70
2018-09-13T04:41:14.544Z,1.97
2018-09-13T04:43:42.068Z,1.83
2018-09-13T04:46:09.656Z,1.97
2018-09-13T04:48:37.575Z,2.10
2018-09-13T04:51:05.487Z,1.90
2018-09-13T04:53:33.219Z,2.00
2018-09-13T04:56:01.200Z,1.73
2018-09-13T04:58:28.759Z,1.80
2018-09-13T05:00:56.533Z,1.90
2018-09-13T05:03:24.100Z,1.73
2018-09-13T05:05:51.623Z,1.70
2018-09-13T05:08:19.624Z,1.90
2018-09-13T05:10:47.148Z,1.83
2018-09-13T05:13:14.692Z,1.53
2018-09-13T05:15:42.536Z,1.50
2018-09-13T05:18:10.208Z,1.63
2018-09-13T05:20:37.418Z,1.60
2018-09-13T05:23:05.826Z,1.80
2018-09-13T05:25:33.424Z,1.60
2018-09-13T05:28:01.279Z,1.80
2018-09-13T05:30:29.377Z,1.80
2018-09-13T05:32:56.948Z,1.50
2018-09-13T05:35:25.125Z,1.63
2018-09-13T05:37:52.924Z,1.60
2018-09-13T05:40:21.435Z,1.67
2018-09-13T05:42:49.232Z,2.03
2018-09-13T05:45:17.183Z,1.27
2018-09-13T05:47:44.885Z,1.53
2018-09-13T05:50:13.292Z,1.60
2018-09-13T05:52:41.515Z,1.57
2018-09-13T05:55:09.135Z,1.70
2018-09-13T05:57:36.976Z,1.73
2018-09-13T06:00:04.951Z,1.50
2018-09-13T06:02:32.488Z,1.60
2018-09-13T06:05:00.265Z,1.70
2018-09-13T06:07:27.944Z,1.77
2018-09-13T06:09:55.560Z,1.50
2018-09-13T06:12:24.937Z,1.73
2018-09-13T06:14:52.473Z,1.80
2018-09-13T06:17:20.119Z,1.80
2018-09-13T06:19:48.099Z,1.90
2018-09-13T06:22:15.789Z,2.10
2018-09-13T06:24:43.336Z,2.00
2018-09-13T06:27:11.124Z,1.70
2018-09-13T06:29:38.749Z,1.70
2018-09-13T06:32:06.633Z,1.90
2018-09-13T06:34:34.224Z,1.90
2018-09-13T06:37:02.047Z,2.20
2018-09-13T06:39:29.800Z,1.63
2018-09-13T06:41:57.838Z,1.77
2018-09-13T06:44:25.456Z,2.00
2018-09-13T06:46:53.026Z,1.77
2018-09-13T06:49:20.843Z,1.73
2018-09-13T06:51:48.452Z,2.10
2018-09-13T06:54:16.038Z,2.10
2018-09-13T06:56:43.882Z,2.67
2018-09-13T06:59:11.408Z,2.50
2018-09-13T07:01:38.997Z,2.73
2018-09-13T07:04:06.871Z,2.47
2018-09-13T07:06:34.539Z,2.60
2018-09-13T07:09:02.472Z,2.50
2018-09-13T07:11:30.012Z,2.47
2018-09-13T07:13:57.571Z,2.50
2018-09-13T07:16:25.401Z,2.50
2018-09-13T07:18:53.283Z,2.40
2018-09-13T07:21:21.106Z,2.50
2018-09-13T07:23:48.641Z,2.40
2018-09-13T07:26:16.388Z,2.47
2018-09-13T07:28:43.967Z,2.73
2018-09-13T07:31:11.816Z,2.70
2018-09-13T07:33:39.343Z,2.60
2018-09-13T07:36:07.175Z,2.47
2018-09-13T07:38:34.724Z,2.43
2018-09-13T07:41:02.282Z,2.80
2018-09-13T07:43:29.980Z,2.80
2018-09-13T07:45:57.605Z,2.90
2018-09-13T07:48:25.160Z,2.73
2018-09-13T07:50:52.768Z,2.63
2018-09-13T07:53:20.404Z,3.97
2018-09-13T07:55:48.173Z,3.57
2018-09-13T07:58:15.752Z,3.63
2018-09-13T08:00:43.812Z,4.23
2018-09-13T08:03:11.361Z,3.53
2018-09-13T08:05:38.916Z,3.13
2018-09-13T08:08:06.515Z,3.33
2018-09-13T08:10:34.112Z,2.80
2018-09-13T08:13:01.728Z,3.20
2018-09-13T08:15:29.804Z,3.43
2018-09-13T08:17:57.357Z,2.77
2018-09-13T08:20:24.928Z,3.10
2018-09-13T08:22:52.858Z,3.17
2018-09-13T08:25:20.374Z,2.90
2018-09-13T08:27:48.267Z,2.97
2018-09-13T08:30:15.814Z,3.50
2018-09-13T08:32:43.411Z,4.07
2018-09-13T08:35:11.378Z,3.50
2018-09-13T08:37:38.839Z,3.70
2018-09-13T08:40:06.285Z,4.00
2018-09-13T08:42:33.807Z,3.50
2018-09-13T08:45:01.724Z,2.77
2018-09-13T08:47:29.373Z,3.20
2018-09-13T08:49:57.257Z,2.97
2018-09-13T08:52:24.912Z,3.33
2018-09-13T08:54:52.433Z,3.17
2018-09-13T08:57:20.380Z,3.60
2018-09-13T08:59:47.975Z,3.47
2018-09-13T09:02:15.581Z,3.47
2018-09-13T09:04:43.267Z,3.33
2018-09-13T09:07:10.896Z,3.30
2018-09-13T09:09:38.456Z,3.47
2018-09-13T09:12:06.593Z,3.57
2018-09-13T09:14:34.146Z,3.10
2018-09-13T09:17:01.741Z,2.60
2018-09-13T09:19:29.693Z,3.97
2018-09-13T09:21:57.412Z,3.67
2018-09-13T09:24:25.732Z,3.40
2018-09-13T09:26:53.409Z,3.00
2018-09-13T09:29:21.967Z,3.17
2018-09-13T09:31:49.511Z,3.40
2018-09-13T09:34:17.522Z,3.00
2018-09-13T09:36:45.093Z,3.13
2018-09-13T09:39:14.040Z,3.20
2018-09-13T09:41:42.060Z,2.80
2018-09-13T09:44:09.805Z,2.77
2018-09-13T09:46:37.773Z,2.90
2018-09-13T09:49:05.688Z,3.00
2018-09-13T09:51:33.219Z,3.27
2018-09-13T09:54:00.812Z,2.67
2018-09-13T09:56:28.648Z,2.83
2018-09-13T09:58:56.183Z,3.00
2018-09-13T10:01:29.565Z,2.40
2018-09-13T10:03:57.784Z,2.97
2018-09-13T10:06:25.391Z,2.93
2018-09-13T10:08:53.004Z,3.07
2018-09-13T10:11:20.592Z,3.53
2018-09-13T10:13:48.395Z,3.37
2018-09-13T10:16:21.665Z,3.20
2018-09-13T10:18:54.035Z,2.97
2018-09-13T10:21:27.584Z,3.03
2018-09-13T10:24:01.036Z,3.47
2018-09-13T10:26:34.520Z,3.13
2018-09-13T10:29:07.992Z,3.17
2018-09-13T10:31:41.370Z,3.80
2018-09-13T10:34:14.856Z,3.60
2018-09-13T10:36:48.549Z,3.33
2018-09-13T10:39:22.175Z,3.03
2018-09-13T10:41:55.364Z,3.20
2018-09-13T10:44:28.640Z,3.20
2018-09-13T10:47:01.907Z,3.03
2018-09-13T10:49:35.661Z,3.10
2018-09-13T10:52:04.731Z,3.10
2018-09-13T10:54:36.932Z,3.03
2018-09-13T10:57:10.327Z,3.60
2018-09-13T10:59:38.088Z,3.60
2018-09-13T11:02:05.632Z,3.13
2018-09-13T11:04:33.469Z,3.13
2018-09-13T11:07:01.325Z,3.70
2018-09-13T11:09:29.130Z,3.10
2018-09-13T11:11:56.682Z,3.20
2018-09-13T11:14:34.064Z,3.13
2018-09-13T11:17:01.915Z,3.27
2018-09-13T11:19:29.520Z,3.40
2018-09-13T11:21:57.316Z,3.03
2018-09-13T11:24:25.028Z,3.30
2018-09-13T11:26:52.552Z,3.57
2018-09-13T11:29:20.556Z,3.23
2018-09-13T11:31:48.163Z,3.73
2018-09-13T11:34:15.765Z,3.80
2018-09-13T11:36:43.938Z,2.93
2018-09-13T11:39:12.501Z,3.03
2018-09-13T11:41:40.097Z,3.07
2018-09-13T11:44:07.998Z,3.10
2018-09-13T11:46:36.092Z,3.30
2018-09-13T11:49:03.722Z,3.23
2018-09-13T11:51:31.608Z,3.20
2018-09-13T11:53:59.327Z,3.00
2018-09-13T11:56:26.881Z,3.40
2018-09-13T11:58:54.452Z,2.77
2018-09-13T12:01:22.037Z,3.07
2018-09-13T12:03:49.608Z,3.10
2018-09-13T12:06:17.496Z,3.20
2018-09-13T12:08:45.048Z,2.63
2018-09-13T12:11:12.827Z,3.07
2018-09-13T12:13:40.372Z,3.07
2018-09-13T12:16:08.860Z,2.87
2018-09-13T12:18:36.896Z,3.27
2018-09-13T12:21:04.422Z,3.70
2018-09-13T12:23:32.104Z,3.63
2018-09-13T12:26:00.275Z,3.70
2018-09-13T12:28:27.807Z,3.90
2018-09-13T12:30:56.074Z,3.37
2018-09-13T12:33:23.880Z,3.03
2018-09-13T12:35:51.448Z,3.70
2018-09-13T12:38:20.372Z,4.10
2018-09-13T12:40:48.409Z,3.63
2018-09-13T12:43:15.958Z,3.77
2018-09-13T12:45:43.495Z,3.70
2018-09-13T12:48:11.356Z,3.73
2018-09-13T12:50:38.916Z,3.30
2018-09-13T12:53:06.493Z,3.60
2018-09-13T12:55:40.082Z,3.80
2018-09-13T12:58:07.696Z,3.90
2018-09-13T13:00:35.240Z,3.40
2018-09-13T13:03:02.947Z,3.40
2018-09-13T13:05:30.506Z,3.47
2018-09-13T13:07:58.084Z,3.27
2018-09-13T13:10:25.964Z,3.43
2018-09-13T13:12:53.506Z,3.50
2018-09-13T13:15:21.128Z,3.23
2018-09-13T13:17:48.966Z,4.17
2018-09-13T13:20:16.532Z,4.13
2018-09-13T13:22:44.230Z,3.80
2018-09-13T13:25:11.916Z,4.67
2018-09-13T13:27:39.566Z,4.33
2018-09-13T13:30:07.020Z,4.23
2018-09-13T13:32:34.877Z,4.63
2018-09-13T13:35:02.462Z,3.87
2018-09-13T13:37:30.596Z,4.10
2018-09-13T13:39:58.120Z,4.13
2018-09-13T13:42:25.705Z,4.70
2018-09-13T13:44:53.320Z,4.20
2018-09-13T13:47:21.088Z,4.17
2018-09-13T13:49:49.096Z,4.07
2018-09-13T13:52:17.636Z,3.97
2018-09-13T13:54:45.252Z,4.03
2018-09-13T13:57:12.806Z,3.80
2018-09-13T13:59:40.644Z,4.27
2018-09-13T14:02:08.200Z,3.90
2018-09-13T14:04:35.757Z,4.37
2018-09-13T14:07:03.635Z,4.30
2018-09-13T14:09:31.220Z,3.93
2018-09-13T14:11:58.769Z,4.13
2018-09-13T14:14:26.528Z,4.60
2018-09-13T14:16:54.127Z,4.13
2018-09-13T14:19:21.687Z,4.10
2018-09-13T14:21:49.381Z,4.33
2018-09-13T14:24:16.907Z,4.07
2018-09-13T14:26:44.529Z,4.40
2018-09-13T14:29:12.548Z,4.00
2018-09-13T14:31:40.819Z,3.97
2018-09-13T14:34:08.385Z,3.90
2018-09-13T14:36:35.987Z,3.13
2018-09-13T14:39:06.222Z,3.53
2018-09-13T14:41:34.112Z,3.13
2018-09-13T14:44:01.791Z,3.13
2018-09-13T14:46:29.892Z,3.00
2018-09-13T14:48:57.463Z,2.30
2018-09-13T14:51:25.716Z,3.03
2018-09-13T14:53:53.842Z,2.63
2018-09-13T14:56:21.716Z,2.50
2018-09-13T14:58:49.393Z,2.30
2018-09-13T15:01:16.953Z,2.20
2018-09-13T15:03:44.616Z,2.50
2018-09-13T15:06:12.383Z,2.40
2018-09-13T15:08:39.943Z,2.80
2018-09-13T15:11:07.527Z,2.43
2018-09-13T15:13:35.471Z,2.50
2018-09-13T15:16:02.979Z,2.33
2018-09-13T15:18:30.548Z,2.60
2018-09-13T15:20:58.388Z,2.20
2018-09-13T15:23:26.092Z,2.33
2018-09-13T15:25:53.666Z,2.33
2018-09-13T15:28:21.681Z,2.37
2018-09-13T15:30:49.250Z,2.80
2018-09-13T15:33:18.305Z,2.63
2018-09-13T15:35:46.459Z,2.17
2018-09-13T15:38:13.976Z,2.20
2018-09-13T15:40:41.561Z,2.27
2018-09-13T15:43:09.555Z,2.30
2018-09-13T15:45:37.404Z,2.20
2018-09-13T15:48:08.530Z,2.33
2018-09-13T15:50:36.434Z,2.50
2018-09-13T15:53:07.887Z,2.47
2018-09-13T15:55:35.441Z,2.60
2018-09-13T15:58:03.308Z,2.20
2018-09-13T16:00:30.887Z,2.83
2018-09-13T16:02:58.449Z,2.83
2018-09-13T16:05:26.101Z,2.13
2018-09-13T16:07:53.661Z,2.37
2018-09-13T16:10:21.188Z,2.60
2018-09-13T16:12:49.338Z,2.27
2018-09-13T16:15:16.880Z,2.50
2018-09-13T16:17:44.538Z,2.23
2018-09-13T16:20:12.820Z,2.03
2018-09-13T16:22:40.810Z,2.07
2018-09-13T16:25:08.407Z,2.50
2018-09-13T16:27:35.988Z,2.70
2018-09-13T16:30:03.759Z,2.17
2018-09-13T16:32:31.308Z,2.17
2018-09-13T16:34:59.571Z,2.17
2018-09-13T16:37:33.096Z,2.20
2018-09-13T16:40:09.827Z,2.17
2018-09-13T16:42:52.399Z,2.23
2018-09-13T16:45:22.056Z,2.43
2018-09-13T16:47:55.643Z,2.60
2018-09-13T16:50:23.640Z,2.50
2018-09-13T16:52:51.239Z,2.27
2018-09-13T16:55:18.772Z,2.43
2018-09-13T16:57:47.383Z,2.47
2018-09-13T17:00:14.917Z,2.20
2018-09-13T17:02:42.542Z,2.30
2018-09-13T17:05:10.652Z,2.33
2018-09-13T17:07:38.252Z,2.50
2018-09-13T17:10:06.356Z,2.30
2018-09-13T17:12:34.140Z,2.30
2018-09-13T17:15:01.802Z,2.30
2018-09-13T17:17:29.421Z,2.40
2018-09-13T17:19:57.340Z,2.53
2018-09-13T17:22:25.525Z,2.80
2018-09-13T17:24:53.148Z,3.07
2018-09-13T17:27:21.074Z,3.53
2018-09-13T17:29:48.644Z,2.93
2018-09-13T17:32:16.416Z,3.27
2018-09-13T17:34:43.959Z,2.60
2018-09-13T17:37:11.499Z,2.97
2018-09-13T17:39:39.509Z,3.27
2018-09-13T17:42:07.081Z,2.37
2018-09-13T17:44:35.477Z,3.10
2018-09-13T17:47:03.296Z,2.70
2018-09-13T17:49:30.830Z,2.70
2018-09-13T17:51:58.503Z,3.10
2018-09-13T17:54:26.328Z,2.40
2018-09-13T17:56:53.905Z,2.07
2018-09-13T17:59:21.508Z,2.37
2018-09-13T18:01:49.719Z,1.97
2018-09-13T18:04:17.292Z,1.67
2018-09-13T18:06:44.932Z,1.60
2018-09-13T18:09:12.797Z,1.57
2018-09-13T18:11:40.368Z,1.43
2018-09-13T18:14:07.935Z,1.57
2018-09-13T18:16:36.035Z,1.70
2018-09-13T18:19:03.678Z,1.40
2018-09-13T18:21:31.227Z,1.53
2018-09-13T18:23:58.816Z,1.60
2018-09-13T18:26:26.309Z,1.50
2018-09-13T18:28:53.901Z,1.47
2018-09-13T18:31:21.678Z,1.27
2018-09-13T18:33:49.633Z,1.60
2018-09-13T18:36:17.284Z,1.40
2018-09-13T18:38:44.940Z,1.40
2018-09-13T18:41:12.756Z,1.30
2018-09-13T18:43:40.340Z,1.50
2018-09-13T18:46:07.599Z,1.50
2018-09-13T18:48:35.548Z,1.57
2018-09-13T18:51:03.113Z,1.67
2018-09-13T18:53:30.708Z,1.70
2018-09-13T18:55:58.285Z,1.80
2018-09-13T18:58:25.963Z,1.50
2018-09-13T19:00:53.998Z,1.67
2018-09-13T19:03:21.515Z,1.70
2018-09-13T19:05:56.183Z,1.93
2018-09-13T19:08:23.776Z,1.80
2018-09-13T19:10:51.403Z,1.70
2018-09-13T19:13:19.041Z,1.50
2018-09-13T19:15:46.621Z,1.67
2018-09-13T19:18:14.401Z,1.77
2018-09-13T19:20:41.924Z,1.70
2018-09-13T19:23:09.502Z,1.37
2018-09-13T19:25:37.496Z,1.63
2018-09-13T19:28:05.072Z,1.73
2018-09-13T19:30:32.761Z,2.10
2018-09-13T19:33:00.774Z,1.70
2018-09-13T19:35:28.402Z,1.50
2018-09-13T19:37:55.926Z,1.70
2018-09-13T19:40:23.723Z,1.60
2018-09-13T19:42:51.579Z,1.57
2018-09-13T19:45:19.320Z,1.90
2018-09-13T19:47:47.228Z,1.77
2018-09-13T19:50:15.409Z,1.90
2018-09-13T19:52:42.941Z,2.30
2018-09-13T19:55:10.655Z,2.00
2018-09-13T19:57:38.267Z,2.10
2018-09-13T20:00:06.608Z,2.07
2018-09-13T20:02:34.310Z,1.73
2018-09-13T20:05:01.920Z,2.10
2018-09-13T20:07:29.491Z,2.03
2018-09-13T20:09:57.581Z,2.20
2018-09-13T20:12:25.102Z,2.10
2018-09-13T20:14:53.059Z,2.20
2018-09-13T20:17:20.864Z,2.50
2018-09-13T20:19:48.505Z,2.10
2018-09-13T20:22:16.050Z,2.20
2018-09-13T20:24:43.775Z,2.53
2018-09-13T20:27:11.386Z,2.53
2018-09-13T20:29:38.963Z,2.27
2018-09-13T20:32:06.845Z,2.10
2018-09-13T20:34:34.425Z,1.97
2018-09-13T20:37:02.018Z,1.97
2018-09-13T20:39:29.711Z,2.10
2018-09-13T20:41:57.280Z,2.10
2018-09-13T20:44:24.860Z,1.90
2018-09-13T20:46:52.910Z,2.20
2018-09-13T20:49:20.506Z,1.80
2018-09-13T20:51:48.003Z,2.10
2018-09-13T20:54:15.864Z,1.83
2018-09-13T20:56:43.480Z,2.00
2018-09-13T20:59:11.064Z,2.00
2018-09-13T21:01:38.793Z,2.17
2018-09-13T21:04:06.440Z,2.00
2018-09-13T21:06:34.344Z,1.83
2018-09-13T21:09:01.902Z,1.77
2018-09-13T21:11:30.702Z,1.80
2018-09-13T21:13:58.407Z,2.00
2018-09-13T21:16:26.049Z,2.40
2018-09-13T21:18:53.725Z,1.70
2018-09-13T21:21:21.292Z,1.93
2018-09-13T21:23:48.810Z,1.70
2018-09-13T21:26:16.687Z,1.87
2018-09-13T21:28:44.272Z,2.10
2018-09-13T21:31:11.880Z,1.80
2018-09-13T21:33:39.669Z,1.60
2018-09-13T21:36:07.438Z,2.23
2018-09-13T21:38:35.257Z,1.63
2018-09-13T21:41:02.889Z,1.70
2018-09-13T21:43:30.619Z,1.73
2018-09-13T21:45:59.041Z,1.53
2018-09-13T21:48:26.754Z,1.60
2018-09-13T21:50:54.287Z,1.60
2018-09-13T21:53:22.149Z,1.83
2018-09-13T21:55:54.908Z,1.60
2018-09-13T21:58:22.647Z,1.80
2018-09-13T22:00:50.412Z,1.77
2018-09-13T22:03:18.081Z,1.70
2018-09-13T22:05:45.829Z,1.83
2018-09-13T22:08:13.407Z,1.90
2018-09-13T22:10:41.051Z,1.77
2018-09-13T22:13:09.329Z,1.63
2018-09-13T22:15:36.981Z,1.80
2018-09-13T22:18:04.969Z,1.80
2018-09-13T22:20:33.768Z,2.10
2018-09-13T22:23:01.686Z,1.97
2018-09-13T22:25:30.278Z,1.63
2018-09-13T22:27:58.535Z,1.73
2018-09-13T22:30:26.147Z,1.80
2018-09-13T22:32:53.673Z,2.00
2018-09-13T22:35:22.105Z,1.87
2018-09-13T22:37:49.684Z,1.93
2018-09-13T22:40:17.295Z,2.10
2018-09-13T22:42:45.242Z,1.73
2018-09-13T22:45:12.814Z,2.20
2018-09-13T22:47:40.327Z,2.17
2018-09-13T22:50:08.248Z,1.80
2018-09-13T22:52:35.968Z,2.30
2018-09-13T22:55:03.740Z,2.23
2018-09-13T22:57:31.632Z,1.77
2018-09-13T22:59:59.133Z,1.97
2018-09-13T23:02:26.700Z,1.93
2018-09-13T23:04:54.260Z,2.00
2018-09-13T23:07:21.876Z,2.03
2018-09-13T23:09:49.573Z,2.27
2018-09-13T23:12:20.802Z,2.43
2018-09-13T23:14:48.332Z,2.63
2018-09-13T23:17:18.563Z,2.80
2018-09-13T23:19:46.099Z,2.47
2018-09-13T23:22:13.641Z,2.60
2018-09-13T23:24:42.209Z,2.10
2018-09-13T23:27:09.784Z,2.60
2018-09-13T23:29:37.622Z,2.70
2018-09-13T23:32:05.532Z,2.60
2018-09-13T23:34:33.070Z,2.83
2018-09-13T23:37:00.733Z,2.60
2018-09-13T23:39:28.661Z,3.10
2018-09-13T23:41:56.312Z,2.50
2018-09-13T23:44:23.856Z,2.93
2018-09-13T23:46:51.596Z,2.40
2018-09-13T23:49:19.155Z,3.07
2018-09-13T23:51:46.686Z,3.53
2018-09-13T23:54:14.548Z,3.10
2018-09-13T23:56:42.724Z,2.80
2018-09-13T23:59:10.275Z,3.23
